Latest Weather Observations for Ernabella/Pukatja

IDD60801

Issued at 9:31 pm CST Tuesday 4 August 2020 (issued every 10 minutes, with the page automatically refreshed every 10 minutes)

About weather observations | Map of weather stations | Latest weather observations for NT | Other Formats
Station Details ID: 016097 Name: PUKATJA Lat: -26.26 Lon: 132.18 Height: 703.2 m
Data from the previous 72 hours. | See also: Recent months at Ernabella/Pukatja
Date/Time
CST
Temp
°C
App
Temp
°C
Dew
Point
°C
Rel
Hum
%
Delta-T
°C
Wind Press
QNH
hPa
Press
MSL
hPa
Rain since
9am
mm
Dir  Spd
km/h
Gust
km/h
Spd
kts
Gust
kts
04/09:30pm 21.7 17.2 -6.9 14 11.6 N 9 15 5 8 1012.5 1011.2 0.0
04/09:00pm 20.7 15.9 -6.0 16 11.0 N 11 20 6 11 1012.2 1011.0 0.0
04/08:30pm 21.0 17.9 -6.6 15 11.2 NNW 2 6 1 3 1011.9 1010.7 0.0
04/08:00pm 20.7 16.3 -6.0 16 10.9 NE 9 13 5 7 1011.5 1010.2 0.0
04/07:30pm 20.8 17.0 -5.1 17 10.8 NNW 6 9 3 5 1011.6 1010.4 0.0
04/07:00pm 21.0 16.5 -6.6 15 11.2 NNE 9 11 5 6 1011.4 1010.1 0.0
04/06:30pm 21.9 17.8 -6.8 14 11.7 NNE 7 9 4 5 1011.4 1010.1 0.0
04/06:00pm 23.9 18.2 -7.2 12 12.9 NNW 15 24 8 13 1011.1 1009.8 0.0
04/05:45pm 24.3 17.1 -4.9 14 12.6 N 24 57 13 31 1011.5 1010.2 0.0
04/05:43pm 24.5 18.2 -5.7 13 12.9 N 19 57 10 31 1011.3 1010.0 0.0
04/05:30pm 24.5 19.5 -7.9 11 13.3 N 11 15 6 8 1011.3 1010.0 0.0
04/05:00pm 25.1 18.9 -8.6 10 13.7 NNW 17 24 9 13 1011.2 1009.9 0.0
04/04:30pm 25.7 20.3 -8.2 10 14.0 NNW 13 26 7 14 1011.0 1009.7 0.0
04/04:00pm 25.9 19.7 -9.4 9 14.3 NNW 17 24 9 13 1011.3 1010.0 0.0
04/03:30pm 26.0 19.8 -9.3 9 14.3 N 17 24 9 13 1011.2 1009.9 0.0
04/03:00pm 26.2 20.0 -9.1 9 14.4 N 17 24 9 13 1011.5 1010.2 0.0
04/02:30pm 26.5 20.3 -8.9 9 14.5 NNW 17 28 9 15 1012.0 1010.8 0.0
04/02:00pm 27.0 20.7 -10.0 8 15.0 NNW 17 24 9 13 1012.5 1011.2 0.0
04/01:30pm 24.6 19.2 -9.0 10 13.5 NNW 13 20 7 11 1012.9 1011.7 0.0
04/01:00pm 24.8 18.2 -8.8 10 13.6 N 19 28 10 15 1013.3 1012.1 0.0
04/12:30pm 25.0 18.8 -8.7 10 13.7 N 17 26 9 14 1013.9 1012.6 0.0
04/12:00pm 23.5 16.0 -8.6 11 12.9 N 24 32 13 17 1014.3 1013.1 0.0
04/11:30am 23.5 17.4 -7.5 12 12.7 NNW 17 24 9 13 1014.9 1013.7 0.0
04/11:00am 23.6 18.0 -6.4 13 12.5 NNE 15 20 8 11 1015.2 1014.0 0.0
04/10:30am 21.6 15.1 -6.1 15 11.4 NNE 20 24 11 13 1015.1 1013.9 0.0
04/10:00am 20.2 14.4 -4.8 18 10.4 NE 17 24 9 13 1015.6 1014.4 0.0
04/09:30am 19.3 13.1 -4.9 19 10.0 NNE 19 28 10 15 1015.5 1014.3 0.0
04/09:00am 18.8 13.0 -4.6 20 9.7 NE 17 22 9 12 1015.4 1014.2 0.0
04/08:30am 17.5 11.7 -4.4 22 9.0 NE 17 24 9 13 1015.1 1013.9 0.0
04/08:00am 15.9 10.9 -4.6 24 8.2 NE 13 22 7 12 1014.9 1013.7 0.0
04/07:30am 12.1 7.0 -5.4 29 6.6 NE 13 17 7 9 1014.9 1013.7 0.0
04/07:00am 12.2 7.0 -5.7 28 6.8 NE 13 15 7 8 1014.6 1013.4 0.0
04/06:30am 12.5 7.7 -6.0 27 7.0 NE 11 15 6 8 1014.4 1013.2 0.0
04/06:00am 13.7 8.9 -6.5 24 7.6 ENE 11 15 6 8 1014.2 1013.0 0.0
04/05:30am 13.2 8.3 -7.4 23 7.6 ENE 11 15 6 8 1014.1 1012.8 0.0
04/05:00am 13.2 7.9 -7.4 23 7.6 ENE 13 17 7 9 1014.0 1012.7 0.0
04/04:51am 12.6 7.3 -6.9 25 7.2 NE 13 17 7 9 1013.9 1012.6 0.0
04/04:30am 7.0 2.4 -7.8 34 5.0 ESE 9 11 5 6 1013.9 1012.6 0.0
04/04:00am 6.2 1.6 -7.4 37 4.6 E 9 13 5 7 1014.1 1012.8 0.0
04/03:30am 8.7 4.1 -7.9 30 5.7 E 9 11 5 6 1014.3 1013.1 0.0
04/03:00am 6.7 2.2 -7.3 36 4.7 E 9 13 5 7 1014.5 1013.3 0.0
04/02:30am 7.4 4.6 -7.4 34 5.1 CALM 0 0 0 0 1014.7 1013.5 0.0
04/02:00am 8.4 5.5 -8.1 30 5.6 CALM 0 0 0 0 1014.8 1013.6 0.0
04/01:30am 9.4 6.5 -8.2 28 6.1 CALM 0 0 0 0 1015.0 1013.8 0.0
04/01:00am 9.0 6.2 -7.2 31 5.7 CALM 0 0 0 0 1015.4 1014.2 0.0
04/12:30am 9.6 6.7 -8.0 28 6.1 CALM 0 0 0 0 1015.5 1014.3 0.0
04/12:00am 10.7 7.8 -8.5 25 6.7 CALM 0 0 0 0 1015.6 1014.4 0.0
 
Date/Time
CST
Temp
°C
App
Temp
°C
Dew
Point
°C
Rel
Hum
%
Delta-T
°C
Wind Press
QNH
hPa
Press
MSL
hPa
Rain since
9am
mm
Dir  Spd
km/h
Gust
km/h
Spd
kts
Gust
kts
03/11:30pm 9.3 6.5 -7.4 30 5.8 CALM 0 0 0 0 1015.6 1014.4 0.0
03/11:00pm 10.4 7.5 -7.8 27 6.4 CALM 0 0 0 0 1015.6 1014.4 0.0
03/10:30pm 10.3 7.5 -7.4 28 6.3 CALM 0 0 0 0 1015.7 1014.5 0.0
03/10:00pm 10.9 8.1 -7.3 27 6.5 CALM 0 0 0 0 1015.7 1014.5 0.0
03/09:30pm 13.4 10.5 -8.4 21 7.8 CALM 0 0 0 0 1015.6 1014.4 0.0
03/09:00pm 11.5 8.6 -7.8 25 6.9 CALM 0 0 0 0 1015.5 1014.3 0.0
03/08:30pm 12.7 9.5 -6.8 25 7.2 E 2 6 1 3 1015.1 1013.9 0.0
03/08:00pm 15.4 11.5 -6.8 21 8.5 E 6 7 3 4 1014.9 1013.7 0.0
03/07:30pm 16.6 12.3 -11.0 14 9.8 ESE 6 7 3 4 1014.7 1013.5 0.0
03/07:00pm 18.0 14.5 -10.8 13 10.4 WSW 2 6 1 3 1014.5 1013.3 0.0
03/06:30pm 19.6 15.1 -11.6 11 11.3 WNW 7 9 4 5 1014.3 1013.1 0.0
03/06:00pm 22.7 17.8 -11.8 9 12.9 WNW 9 13 5 7 1014.2 1013.0 0.0
03/05:30pm 23.6 17.5 -12.5 8 13.5 WNW 15 20 8 11 1014.0 1012.7 0.0
03/05:00pm 24.0 17.9 -12.2 8 13.6 WNW 15 22 8 12 1014.0 1012.7 0.0
03/04:30pm 24.4 18.0 -11.9 8 13.8 WNW 17 24 9 13 1014.0 1012.7 0.0
03/04:00pm 24.2 17.8 -12.1 8 13.7 WNW 17 30 9 16 1014.1 1012.8 0.0
03/03:30pm 24.6 17.8 -11.8 8 13.9 WNW 19 24 10 13 1014.3 1013.1 0.0
03/03:00pm 24.0 17.6 -12.2 8 13.6 W 17 30 9 16 1014.5 1013.3 0.0
03/02:30pm 24.0 17.9 -12.2 8 13.6 WNW 15 26 8 14 1014.8 1013.6 0.0
03/02:00pm 24.9 19.3 -11.6 8 14.0 NW 13 26 7 14 1015.1 1013.9 0.0
03/01:30pm 23.8 17.1 -10.9 9 13.4 NNW 19 28 10 15 1015.6 1014.4 0.0
03/01:00pm 23.6 17.2 -11.1 9 13.3 NNW 17 28 9 15 1016.1 1014.9 0.0
03/12:30pm 23.6 17.3 -9.8 10 13.1 N 17 26 9 14 1016.5 1015.3 0.0
03/12:00pm 22.9 16.3 -9.1 11 12.6 N 19 28 10 15 1017.1 1015.9 0.0
03/11:30am 22.8 16.9 -10.4 10 12.8 N 15 20 8 11 1017.4 1016.2 0.0
03/11:00am 21.4 16.5 -7.2 14 11.5 NNE 11 15 6 8 1017.8 1016.7 0.0
03/10:30am 20.4 15.0 -4.7 18 10.5 NE 15 19 8 10 1018.2 1017.1 0.0
03/10:00am 19.2 14.2 -4.3 20 9.8 NE 13 17 7 9 1018.3 1017.2 0.0
03/09:30am 17.8 12.4 -4.2 22 9.1 NE 15 20 8 11 1018.5 1017.3 0.0
03/09:00am 17.2 12.6 -4.1 23 8.8 NE 11 15 6 8 1018.7 1017.5 0.0
03/08:30am 14.7 12.1 -4.6 26 7.7 CALM 0 0 0 0 1018.5 1017.3 0.0
03/08:00am 12.7 9.4 -4.4 30 6.7 S 4 7 2 4 1018.3 1017.2 0.0
03/07:30am 12.2 8.4 -5.3 29 6.6 E 6 7 3 4 1018.1 1017.0 0.0
03/07:00am 9.6 7.0 -5.1 35 5.5 CALM 0 4 0 2 1017.9 1016.8 0.0
03/06:30am 10.8 7.4 -5.2 32 6.0 SE 4 7 2 4 1017.8 1016.7 0.0
03/06:00am 11.4 7.6 -5.5 30 6.3 S 6 9 3 5 1017.6 1016.4 0.0
03/05:30am 12.5 7.4 -5.5 28 6.8 NNE 13 24 7 13 1017.5 1016.3 0.0
03/05:00am 13.3 8.1 -5.8 26 7.3 NNE 13 19 7 10 1017.5 1016.3 0.0
03/04:30am 12.6 7.4 -5.9 27 7.0 NNE 13 17 7 9 1017.3 1016.1 0.0
03/04:00am 13.0 7.8 -6.0 26 7.2 NNE 13 20 7 11 1017.4 1016.2 0.0
03/03:30am 14.5 9.3 -6.4 23 8.0 N 13 19 7 10 1017.6 1016.4 0.0
03/03:00am 13.4 8.6 -6.2 25 7.4 N 11 19 6 10 1017.8 1016.7 0.0
03/02:30am 12.8 8.9 -6.7 25 7.2 NNE 6 9 3 5 1017.8 1016.7 0.0
03/02:00am 12.7 8.5 -7.9 23 7.4 NE 7 11 4 6 1018.0 1016.9 0.0
03/01:30am 11.7 7.1 -8.2 24 7.0 E 9 11 5 6 1018.2 1017.1 0.0
03/01:00am 13.8 9.1 -9.4 19 8.2 NE 9 9 5 5 1018.3 1017.2 0.0
03/12:30am 13.0 8.0 -8.2 22 7.6 NE 11 13 6 7 1018.6 1017.4 0.0
03/12:00am 10.9 7.0 -5.1 32 6.0 ENE 7 9 4 5 1018.7 1017.5 0.0
 
Date/Time
CST
Temp
°C
App
Temp
°C
Dew
Point
°C
Rel
Hum
%
Delta-T
°C
Wind Press
QNH
hPa
Press
MSL
hPa
Rain since
9am
mm
Dir  Spd
km/h
Gust
km/h
Spd
kts
Gust
kts
02/11:30pm 13.8 9.5 -8.7 20 8.1 E 7 9 4 5 1018.8 1017.6 0.0
02/11:00pm 13.3 8.3 -7.9 22 7.7 E 11 13 6 7 1019.1 1018.0 0.0
02/10:30pm 10.4 5.2 -6.0 31 6.0 E 13 13 7 7 1018.9 1017.7 0.0
02/10:00pm 10.4 5.9 -6.4 30 6.1 E 9 11 5 6 1018.9 1017.7 0.0
02/09:30pm 10.7 8.0 -5.7 31 6.1 CALM 0 0 0 0 1019.0 1017.8 0.0
02/09:00pm 12.5 9.1 -5.5 28 6.8 ENE 4 6 2 3 1018.9 1017.7 0.0
02/08:30pm 13.9 9.7 -8.0 21 8.0 NNE 7 7 4 4 1018.7 1017.5 0.0
02/08:00pm 13.8 11.0 -6.9 23 7.7 CALM 0 0 0 0 1018.8 1017.6 0.0
02/07:30pm 14.1 9.9 -7.9 21 8.1 N 7 7 4 4 1018.7 1017.5 0.0
02/07:00pm 15.6 11.3 -9.3 17 9.0 NNW 7 7 4 4 1018.7 1017.5 0.0
02/06:30pm 18.1 13.7 -9.8 14 10.3 NNW 7 9 4 5 1018.3 1017.2 0.0
02/06:00pm 21.1 16.9 -10.5 11 11.9 WNW 6 7 3 4 1018.0 1016.9 0.0
02/05:30pm 22.5 18.2 -11.9 9 12.8 WNW 6 9 3 5 1017.6 1016.4 0.0
02/05:00pm 22.7 17.4 -11.8 9 12.9 WNW 11 19 6 10 1017.7 1016.5 0.0
02/04:30pm 22.8 17.5 -11.7 9 12.9 WSW 11 17 6 9 1017.7 1016.5 0.0
02/04:00pm 22.5 17.6 -11.9 9 12.8 NNE 9 17 5 9 1017.5 1016.3 0.0
02/03:30pm 22.7 17.5 -10.4 10 12.7 WNW 11 17 6 9 1017.8 1016.7 0.0
02/03:00pm 22.5 18.3 -10.6 10 12.6 N 6 11 3 6 1018.0 1016.9 0.0
02/02:30pm 21.8 16.6 -11.1 10 12.3 NNW 11 20 6 11 1018.2 1017.1 0.0
02/02:00pm 21.7 16.3 -8.9 12 12.0 NNW 13 20 7 11 1018.6 1017.4 0.0
02/01:30pm 21.2 15.3 -9.3 12 11.8 NNW 15 20 8 11 1019.2 1018.1 0.0
02/01:00pm 20.8 15.5 -7.6 14 11.3 NW 13 19 7 10 1019.8 1018.7 0.0
02/12:30pm 20.2 14.1 -8.1 14 11.0 NNW 17 28 9 15 1020.5 1019.4 0.0
02/12:00pm 19.6 13.6 -6.9 16 10.5 NNW 17 28 9 15 1021.2 1020.1 0.0
02/11:30am 19.1 13.1 -6.5 17 10.2 NNW 17 26 9 14 1021.7 1020.6 0.0
02/11:00am 18.2 12.3 -5.8 19 9.6 N 17 26 9 14 1022.0 1020.9 0.0
02/10:30am 17.8 11.4 -5.4 20 9.3 N 20 28 11 15 1022.2 1021.1 0.0
02/10:00am 16.5 11.1 -4.7 23 8.6 NNE 15 20 8 11 1022.4 1021.3 0.0
02/09:30am 15.9 9.7 -4.6 24 8.2 NNE 19 24 10 13 1022.1 1021.0 0.0
02/09:00am 15.5 11.2 -4.4 25 8.0 N 9 15 5 8 1022.1 1021.0 0.0
02/08:30am 13.3 9.5 -3.4 31 6.7 E 7 11 4 6 1021.9 1020.8 0.0
02/08:00am 11.5 9.0 -4.2 33 6.1 CALM 0 0 0 0 1021.9 1020.8 0.0
02/07:30am 8.9 5.2 -4.6 38 5.0 E 6 9 3 5 1021.7 1020.6 0.0
02/07:00am 7.5 3.6 -4.9 41 4.5 E 7 9 4 5 1021.6 1020.5 0.0
02/06:30am 10.8 6.9 -4.8 33 5.9 NNE 7 15 4 8 1021.5 1020.3 0.0
02/06:00am 10.5 8.0 -4.3 35 5.6 CALM 0 0 0 0 1021.2 1020.1 0.0
02/05:30am 9.8 6.1 -4.5 36 5.4 E 6 7 3 4 1021.0 1019.9 0.0
02/05:00am 9.6 5.9 -4.7 36 5.4 E 6 7 3 4 1021.0 1019.9 0.0
02/04:30am 10.3 6.4 -4.9 34 5.7 E 7 9 4 5 1020.9 1019.8 0.0
02/04:00am 10.5 7.6 -4.3 35 5.7 E 2 7 1 4 1021.1 1020.0 0.0
02/03:30am 8.3 4.4 -4.5 40 4.7 ENE 7 11 4 6 1021.3 1020.2 0.0
02/03:00am 9.2 5.4 -5.1 36 5.3 E 6 7 3 4 1021.6 1020.5 0.0
02/02:30am 9.4 5.6 -5.6 34 5.5 E 6 7 3 4 1021.7 1020.6 0.0
02/02:00am 10.7 7.7 -5.3 32 6.0 E 2 6 1 3 1021.8 1020.7 0.0
02/01:30am 8.9 4.9 -5.7 35 5.3 E 7 9 4 5 1021.9 1020.8 0.0
02/01:00am 10.9 6.4 -6.9 28 6.4 E 9 11 5 6 1022.2 1021.1 0.0
02/12:30am 11.1 6.2 -6.7 28 6.4 E 11 13 6 7 1022.4 1021.3 0.0
02/12:00am 11.5 6.6 -6.8 27 6.6 E 11 13 6 7 1022.3 1021.2 0.0
 
Date/Time
CST
Temp
°C
App
Temp
°C
Dew
Point
°C
Rel
Hum
%
Delta-T
°C
Wind Press
QNH
hPa
Press
MSL
hPa
Rain since
9am
mm
Dir  Spd
km/h
Gust
km/h
Spd
kts
Gust
kts
01/11:30pm 11.9 7.1 -6.5 27 6.8 E 11 13 6 7 1022.3 1021.2 0.0
01/11:00pm 12.7 7.8 -6.8 25 7.2 E 11 13 6 7 1022.4 1021.3 0.0
01/10:30pm 13.0 7.7 -7.1 24 7.4 E 13 15 7 8 1022.6 1021.5 0.0
01/10:00pm 13.1 8.6 -7.0 24 7.4 ENE 9 11 5 6 1022.7 1021.6 0.0

Other formats

Comma delimited format used in spreadsheet applications
http://www.bom.gov.au/fwo/IDD60801/IDD60801.94474.axf

JavaScript Object Notation format (JSON) in row-major order
http://www.bom.gov.au/fwo/IDD60801/IDD60801.94474.json

Data quality

Most of these data are generated automatically and are frequently updated. Quality checks on data are not normally performed. It is possible for incorrect values to appear. Refer to information at About Latest Weather Observations and please check the disclaimer before using these data.